sensor_id;sensor_type;location;lat;lon;timestamp;P1;durP1;ratioP1;P2;durP2;ratioP2
19301;SDS011;9785;59.362;12.152;2023-04-25T00:01:07;12.23;;;7.53;;
19301;SDS011;9785;59.362;12.152;2023-04-25T00:03:35;10.73;;;7.13;;
19301;SDS011;9785;59.362;12.152;2023-04-25T00:06:05;12.33;;;7.43;;
19301;SDS011;9785;59.362;12.152;2023-04-25T00:08:34;12.43;;;6.90;;
19301;SDS011;9785;59.362;12.152;2023-04-25T00:11:04;13.67;;;11.40;;
19301;SDS011;9785;59.362;12.152;2023-04-25T00:13:32;13.63;;;6.70;;
19301;SDS011;9785;59.362;12.152;2023-04-25T00:16:02;12.63;;;7.40;;
19301;SDS011;9785;59.362;12.152;2023-04-25T00:18:31;10.73;;;6.40;;
19301;SDS011;9785;59.362;12.152;2023-04-25T00:20:59;12.23;;;6.63;;
19301;SDS011;9785;59.362;12.152;2023-04-25T00:23:29;10.87;;;6.50;;
19301;SDS011;9785;59.362;12.152;2023-04-25T00:25:57;12.27;;;6.77;;
19301;SDS011;9785;59.362;12.152;2023-04-25T00:28:26;9.90;;;6.00;;
19301;SDS011;9785;59.362;12.152;2023-04-25T00:30:54;10.00;;;6.17;;
19301;SDS011;9785;59.362;12.152;2023-04-25T00:33:24;10.67;;;6.27;;
19301;SDS011;9785;59.362;12.152;2023-04-25T00:35:53;9.87;;;5.90;;
19301;SDS011;9785;59.362;12.152;2023-04-25T00:38:21;10.03;;;5.70;;
19301;SDS011;9785;59.362;12.152;2023-04-25T00:40:50;9.33;;;5.53;;
19301;SDS011;9785;59.362;12.152;2023-04-25T00:43:19;7.13;;;4.70;;
19301;SDS011;9785;59.362;12.152;2023-04-25T00:45:47;7.43;;;4.77;;
19301;SDS011;9785;59.362;12.152;2023-04-25T00:48:17;9.50;;;4.83;;
19301;SDS011;9785;59.362;12.152;2023-04-25T00:53:16;5.47;;;3.90;;
19301;SDS011;9785;59.362;12.152;2023-04-25T00:55:45;7.03;;;3.63;;
19301;SDS011;9785;59.362;12.152;2023-04-25T00:58:13;4.93;;;3.50;;
19301;SDS011;9785;59.362;12.152;2023-04-25T01:00:42;4.93;;;3.50;;
19301;SDS011;9785;59.362;12.152;2023-04-25T01:03:12;4.00;;;3.27;;
19301;SDS011;9785;59.362;12.152;2023-04-25T01:05:42;7.10;;;3.57;;
19301;SDS011;9785;59.362;12.152;2023-04-25T01:08:11;7.67;;;3.70;;
19301;SDS011;9785;59.362;12.152;2023-04-25T01:10:42;6.93;;;3.80;;
19301;SDS011;9785;59.362;12.152;2023-04-25T01:13:10;7.40;;;4.77;;
19301;SDS011;9785;59.362;12.152;2023-04-25T01:15:39;9.53;;;5.03;;
19301;SDS011;9785;59.362;12.152;2023-04-25T01:18:08;11.37;;;5.13;;
19301;SDS011;9785;59.362;12.152;2023-04-25T01:20:36;6.83;;;4.60;;
19301;SDS011;9785;59.362;12.152;2023-04-25T01:23:07;9.30;;;4.87;;
19301;SDS011;9785;59.362;12.152;2023-04-25T01:25:35;9.97;;;5.23;;
19301;SDS011;9785;59.362;12.152;2023-04-25T01:28:05;7.53;;;4.47;;
19301;SDS011;9785;59.362;12.152;2023-04-25T01:30:34;6.70;;;4.00;;
19301;SDS011;9785;59.362;12.152;2023-04-25T01:33:02;8.27;;;4.13;;
19301;SDS011;9785;59.362;12.152;2023-04-25T01:35:32;5.33;;;3.80;;
19301;SDS011;9785;59.362;12.152;2023-04-25T01:38:00;6.27;;;4.17;;
19301;SDS011;9785;59.362;12.152;2023-04-25T01:40:30;5.40;;;3.73;;
19301;SDS011;9785;59.362;12.152;2023-04-25T01:42:59;5.37;;;3.47;;
19301;SDS011;9785;59.362;12.152;2023-04-25T01:45:28;6.23;;;3.67;;
19301;SDS011;9785;59.362;12.152;2023-04-25T01:47:57;5.27;;;3.77;;
19301;SDS011;9785;59.362;12.152;2023-04-25T01:50:25;6.30;;;3.90;;
19301;SDS011;9785;59.362;12.152;2023-04-25T01:52:55;6.77;;;4.00;;
19301;SDS011;9785;59.362;12.152;2023-04-25T01:55:24;7.03;;;4.57;;
19301;SDS011;9785;59.362;12.152;2023-04-25T01:57:54;8.57;;;4.97;;
19301;SDS011;9785;59.362;12.152;2023-04-25T02:00:23;9.13;;;4.90;;
19301;SDS011;9785;59.362;12.152;2023-04-25T02:02:51;5.40;;;3.77;;
19301;SDS011;9785;59.362;12.152;2023-04-25T02:05:20;6.97;;;3.70;;
19301;SDS011;9785;59.362;12.152;2023-04-25T02:07:49;5.50;;;3.47;;
19301;SDS011;9785;59.362;12.152;2023-04-25T02:10:17;6.57;;;4.37;;
19301;SDS011;9785;59.362;12.152;2023-04-25T02:12:46;6.30;;;3.90;;
19301;SDS011;9785;59.362;12.152;2023-04-25T02:15:16;8.10;;;4.27;;
19301;SDS011;9785;59.362;12.152;2023-04-25T02:17:44;4.90;;;3.70;;
19301;SDS011;9785;59.362;12.152;2023-04-25T02:20:13;5.63;;;3.40;;
19301;SDS011;9785;59.362;12.152;2023-04-25T02:22:43;4.13;;;3.03;;
19301;SDS011;9785;59.362;12.152;2023-04-25T02:25:12;3.00;;;2.70;;
19301;SDS011;9785;59.362;12.152;2023-04-25T02:27:42;2.80;;;2.40;;
19301;SDS011;9785;59.362;12.152;2023-04-25T02:30:11;3.70;;;2.40;;
19301;SDS011;9785;59.362;12.152;2023-04-25T02:32:41;3.27;;;2.40;;
19301;SDS011;9785;59.362;12.152;2023-04-25T02:35:09;2.43;;;2.13;;
19301;SDS011;9785;59.362;12.152;2023-04-25T02:37:38;2.23;;;2.03;;
19301;SDS011;9785;59.362;12.152;2023-04-25T02:40:08;1.97;;;1.87;;
19301;SDS011;9785;59.362;12.152;2023-04-25T02:42:36;2.27;;;2.07;;
19301;SDS011;9785;59.362;12.152;2023-04-25T02:45:05;1.70;;;1.60;;
19301;SDS011;9785;59.362;12.152;2023-04-25T02:47:34;1.53;;;1.53;;
19301;SDS011;9785;59.362;12.152;2023-04-25T02:50:04;1.70;;;1.40;;
19301;SDS011;9785;59.362;12.152;2023-04-25T02:52:33;1.47;;;1.30;;
19301;SDS011;9785;59.362;12.152;2023-04-25T02:55:02;1.47;;;1.47;;
19301;SDS011;9785;59.362;12.152;2023-04-25T02:57:31;1.10;;;1.10;;
19301;SDS011;9785;59.362;12.152;2023-04-25T02:59:59;2.77;;;1.10;;
19301;SDS011;9785;59.362;12.152;2023-04-25T03:02:28;1.70;;;1.10;;
19301;SDS011;9785;59.362;12.152;2023-04-25T03:04:56;0.97;;;0.97;;
19301;SDS011;9785;59.362;12.152;2023-04-25T03:07:27;0.80;;;0.80;;
19301;SDS011;9785;59.362;12.152;2023-04-25T03:09:55;0.90;;;0.90;;
19301;SDS011;9785;59.362;12.152;2023-04-25T03:12:24;0.97;;;0.97;;
19301;SDS011;9785;59.362;12.152;2023-04-25T03:14:52;1.10;;;0.90;;
19301;SDS011;9785;59.362;12.152;2023-04-25T03:17:21;0.83;;;0.83;;
19301;SDS011;9785;59.362;12.152;2023-04-25T03:19:50;0.80;;;0.80;;
19301;SDS011;9785;59.362;12.152;2023-04-25T03:22:18;0.80;;;0.80;;
19301;SDS011;9785;59.362;12.152;2023-04-25T03:24:48;0.80;;;0.77;;
19301;SDS011;9785;59.362;12.152;2023-04-25T03:27:17;0.60;;;0.60;;
19301;SDS011;9785;59.362;12.152;2023-04-25T03:29:46;0.60;;;0.60;;
19301;SDS011;9785;59.362;12.152;2023-04-25T03:32:14;0.40;;;0.40;;
19301;SDS011;9785;59.362;12.152;2023-04-25T03:34:43;2.33;;;0.47;;
19301;SDS011;9785;59.362;12.152;2023-04-25T03:37:11;0.50;;;0.50;;
19301;SDS011;9785;59.362;12.152;2023-04-25T03:39:40;0.40;;;0.40;;
19301;SDS011;9785;59.362;12.152;2023-04-25T03:42:10;0.90;;;0.40;;
19301;SDS011;9785;59.362;12.152;2023-04-25T03:44:38;0.40;;;0.40;;
19301;SDS011;9785;59.362;12.152;2023-04-25T03:47:07;0.30;;;0.30;;
19301;SDS011;9785;59.362;12.152;2023-04-25T03:49:35;0.40;;;0.40;;
19301;SDS011;9785;59.362;12.152;2023-04-25T03:52:04;0.20;;;0.20;;
19301;SDS011;9785;59.362;12.152;2023-04-25T03:54:33;0.47;;;0.47;;
19301;SDS011;9785;59.362;12.152;2023-04-25T03:57:01;0.50;;;0.50;;
19301;SDS011;9785;59.362;12.152;2023-04-25T03:59:31;0.40;;;0.40;;
19301;SDS011;9785;59.362;12.152;2023-04-25T04:02:00;0.37;;;0.37;;
19301;SDS011;9785;59.362;12.152;2023-04-25T04:04:28;0.40;;;0.40;;
19301;SDS011;9785;59.362;12.152;2023-04-25T04:06:58;0.30;;;0.30;;
19301;SDS011;9785;59.362;12.152;2023-04-25T04:09:26;0.63;;;0.30;;
19301;SDS011;9785;59.362;12.152;2023-04-25T04:11:54;0.17;;;0.17;;
19301;SDS011;9785;59.362;12.152;2023-04-25T04:14:23;0.40;;;0.40;;
19301;SDS011;9785;59.362;12.152;2023-04-25T04:16:53;0.30;;;0.30;;
19301;SDS011;9785;59.362;12.152;2023-04-25T04:19:22;1.30;;;0.50;;
19301;SDS011;9785;59.362;12.152;2023-04-25T04:21:50;0.47;;;0.47;;
19301;SDS011;9785;59.362;12.152;2023-04-25T04:24:19;0.40;;;0.40;;
19301;SDS011;9785;59.362;12.152;2023-04-25T04:26:47;0.67;;;0.37;;
19301;SDS011;9785;59.362;12.152;2023-04-25T04:29:17;0.27;;;0.20;;
19301;SDS011;9785;59.362;12.152;2023-04-25T04:31:47;0.50;;;0.50;;
19301;SDS011;9785;59.362;12.152;2023-04-25T04:34:18;0.40;;;0.40;;
19301;SDS011;9785;59.362;12.152;2023-04-25T04:36:47;0.50;;;0.50;;
19301;SDS011;9785;59.362;12.152;2023-04-25T04:39:16;0.97;;;0.30;;
19301;SDS011;9785;59.362;12.152;2023-04-25T04:41:44;0.50;;;0.50;;
19301;SDS011;9785;59.362;12.152;2023-04-25T04:44:13;0.30;;;0.30;;
19301;SDS011;9785;59.362;12.152;2023-04-25T04:46:41;0.20;;;0.20;;
19301;SDS011;9785;59.362;12.152;2023-04-25T04:49:11;0.40;;;0.40;;
19301;SDS011;9785;59.362;12.152;2023-04-25T04:51:41;0.20;;;0.20;;
19301;SDS011;9785;59.362;12.152;2023-04-25T04:54:11;0.23;;;0.23;;
19301;SDS011;9785;59.362;12.152;2023-04-25T04:56:39;0.30;;;0.30;;
19301;SDS011;9785;59.362;12.152;2023-04-25T04:59:09;0.10;;;0.10;;
19301;SDS011;9785;59.362;12.152;2023-04-25T05:01:37;0.20;;;0.20;;
19301;SDS011;9785;59.362;12.152;2023-04-25T05:04:06;0.20;;;0.20;;
19301;SDS011;9785;59.362;12.152;2023-04-25T05:06:35;0.20;;;0.20;;
19301;SDS011;9785;59.362;12.152;2023-04-25T05:09:05;0.10;;;0.10;;
19301;SDS011;9785;59.362;12.152;2023-04-25T05:11:34;0.10;;;0.10;;
19301;SDS011;9785;59.362;12.152;2023-04-25T05:14:02;0.10;;;0.10;;
19301;SDS011;9785;59.362;12.152;2023-04-25T05:16:31;0.20;;;0.20;;
19301;SDS011;9785;59.362;12.152;2023-04-25T05:18:59;0.13;;;0.13;;
19301;SDS011;9785;59.362;12.152;2023-04-25T05:21:28;0.20;;;0.20;;
19301;SDS011;9785;59.362;12.152;2023-04-25T05:23:57;0.23;;;0.23;;
19301;SDS011;9785;59.362;12.152;2023-04-25T05:26:27;0.13;;;0.13;;
19301;SDS011;9785;59.362;12.152;2023-04-25T05:28:57;0.37;;;0.37;;
19301;SDS011;9785;59.362;12.152;2023-04-25T05:31:26;0.30;;;0.30;;
19301;SDS011;9785;59.362;12.152;2023-04-25T05:33:54;0.20;;;0.20;;
19301;SDS011;9785;59.362;12.152;2023-04-25T05:36:23;0.17;;;0.17;;
19301;SDS011;9785;59.362;12.152;2023-04-25T05:38:52;0.77;;;0.30;;
19301;SDS011;9785;59.362;12.152;2023-04-25T05:41:20;1.07;;;0.30;;
19301;SDS011;9785;59.362;12.152;2023-04-25T05:43:50;0.27;;;0.27;;
19301;SDS011;9785;59.362;12.152;2023-04-25T05:46:23;1.03;;;0.20;;
19301;SDS011;9785;59.362;12.152;2023-04-25T05:48:52;0.20;;;0.20;;
19301;SDS011;9785;59.362;12.152;2023-04-25T05:51:20;0.30;;;0.30;;
19301;SDS011;9785;59.362;12.152;2023-04-25T05:53:49;0.20;;;0.20;;
19301;SDS011;9785;59.362;12.152;2023-04-25T05:56:18;1.30;;;0.40;;
19301;SDS011;9785;59.362;12.152;2023-04-25T05:58:46;0.10;;;0.10;;
19301;SDS011;9785;59.362;12.152;2023-04-25T06:01:16;0.30;;;0.30;;
19301;SDS011;9785;59.362;12.152;2023-04-25T06:03:45;0.20;;;0.20;;
19301;SDS011;9785;59.362;12.152;2023-04-25T06:06:14;0.00;;;0.00;;
19301;SDS011;9785;59.362;12.152;2023-04-25T06:08:43;0.17;;;0.17;;
19301;SDS011;9785;59.362;12.152;2023-04-25T06:11:11;0.20;;;0.20;;
19301;SDS011;9785;59.362;12.152;2023-04-25T06:13:40;0.30;;;0.30;;
19301;SDS011;9785;59.362;12.152;2023-04-25T06:16:08;0.20;;;0.20;;
19301;SDS011;9785;59.362;12.152;2023-04-25T06:18:38;0.40;;;0.40;;
19301;SDS011;9785;59.362;12.152;2023-04-25T06:21:07;0.20;;;0.20;;
19301;SDS011;9785;59.362;12.152;2023-04-25T06:23:35;0.20;;;0.20;;
19301;SDS011;9785;59.362;12.152;2023-04-25T06:26:04;0.10;;;0.10;;
19301;SDS011;9785;59.362;12.152;2023-04-25T06:28:32;0.10;;;0.10;;
19301;SDS011;9785;59.362;12.152;2023-04-25T06:31:01;0.20;;;0.20;;
19301;SDS011;9785;59.362;12.152;2023-04-25T06:33:30;0.20;;;0.20;;
19301;SDS011;9785;59.362;12.152;2023-04-25T06:36:00;0.10;;;0.10;;
19301;SDS011;9785;59.362;12.152;2023-04-25T06:38:28;0.20;;;0.20;;
19301;SDS011;9785;59.362;12.152;2023-04-25T06:40:57;0.10;;;0.10;;
19301;SDS011;9785;59.362;12.152;2023-04-25T06:43:26;0.20;;;0.20;;
19301;SDS011;9785;59.362;12.152;2023-04-25T06:45:54;0.30;;;0.30;;
19301;SDS011;9785;59.362;12.152;2023-04-25T06:48:23;0.10;;;0.10;;
19301;SDS011;9785;59.362;12.152;2023-04-25T06:50:52;0.00;;;0.00;;
19301;SDS011;9785;59.362;12.152;2023-04-25T06:53:22;1.03;;;0.10;;
19301;SDS011;9785;59.362;12.152;2023-04-25T06:55:50;0.27;;;0.27;;
19301;SDS011;9785;59.362;12.152;2023-04-25T06:58:19;0.20;;;0.10;;
19301;SDS011;9785;59.362;12.152;2023-04-25T07:00:47;0.20;;;0.20;;
19301;SDS011;9785;59.362;12.152;2023-04-25T07:03:16;0.20;;;0.20;;
19301;SDS011;9785;59.362;12.152;2023-04-25T07:05:45;0.13;;;0.13;;
19301;SDS011;9785;59.362;12.152;2023-04-25T07:08:14;0.20;;;0.20;;
19301;SDS011;9785;59.362;12.152;2023-04-25T07:10:44;0.10;;;0.10;;
19301;SDS011;9785;59.362;12.152;2023-04-25T07:13:15;0.20;;;0.20;;
19301;SDS011;9785;59.362;12.152;2023-04-25T07:15:44;0.10;;;0.10;;
19301;SDS011;9785;59.362;12.152;2023-04-25T07:18:14;0.20;;;0.20;;
19301;SDS011;9785;59.362;12.152;2023-04-25T07:20:42;0.20;;;0.20;;
19301;SDS011;9785;59.362;12.152;2023-04-25T07:23:11;0.20;;;0.20;;
19301;SDS011;9785;59.362;12.152;2023-04-25T07:25:40;0.20;;;0.20;;
19301;SDS011;9785;59.362;12.152;2023-04-25T07:28:10;0.20;;;0.20;;
19301;SDS011;9785;59.362;12.152;2023-04-25T07:30:38;0.20;;;0.20;;
19301;SDS011;9785;59.362;12.152;2023-04-25T07:33:07;0.20;;;0.20;;
19301;SDS011;9785;59.362;12.152;2023-04-25T07:35:35;0.10;;;0.10;;
19301;SDS011;9785;59.362;12.152;2023-04-25T07:38:04;0.20;;;0.20;;
19301;SDS011;9785;59.362;12.152;2023-04-25T07:40:34;0.60;;;0.60;;
19301;SDS011;9785;59.362;12.152;2023-04-25T07:43:02;0.30;;;0.30;;
19301;SDS011;9785;59.362;12.152;2023-04-25T07:45:32;0.20;;;0.20;;
19301;SDS011;9785;59.362;12.152;2023-04-25T07:48:01;1.30;;;0.30;;
19301;SDS011;9785;59.362;12.152;2023-04-25T07:50:30;0.30;;;0.30;;
19301;SDS011;9785;59.362;12.152;2023-04-25T07:52:59;0.30;;;0.30;;
19301;SDS011;9785;59.362;12.152;2023-04-25T07:55:27;0.40;;;0.40;;
19301;SDS011;9785;59.362;12.152;2023-04-25T07:57:56;0.83;;;0.67;;
19301;SDS011;9785;59.362;12.152;2023-04-25T08:00:25;0.43;;;0.43;;
19301;SDS011;9785;59.362;12.152;2023-04-25T08:02:55;0.40;;;0.40;;
19301;SDS011;9785;59.362;12.152;2023-04-25T08:05:24;0.50;;;0.50;;
19301;SDS011;9785;59.362;12.152;2023-04-25T08:07:53;1.17;;;0.60;;
19301;SDS011;9785;59.362;12.152;2023-04-25T08:10:22;0.50;;;0.50;;
19301;SDS011;9785;59.362;12.152;2023-04-25T08:12:51;0.80;;;0.80;;
19301;SDS011;9785;59.362;12.152;2023-04-25T08:15:20;0.50;;;0.50;;
19301;SDS011;9785;59.362;12.152;2023-04-25T08:17:48;0.60;;;0.60;;
19301;SDS011;9785;59.362;12.152;2023-04-25T08:20:18;1.13;;;0.60;;
19301;SDS011;9785;59.362;12.152;2023-04-25T08:22:47;0.50;;;0.50;;
19301;SDS011;9785;59.362;12.152;2023-04-25T08:25:16;0.50;;;0.50;;
19301;SDS011;9785;59.362;12.152;2023-04-25T08:27:44;0.40;;;0.40;;
19301;SDS011;9785;59.362;12.152;2023-04-25T08:30:13;0.30;;;0.30;;
19301;SDS011;9785;59.362;12.152;2023-04-25T08:32:42;0.30;;;0.30;;
19301;SDS011;9785;59.362;12.152;2023-04-25T08:35:10;0.50;;;0.50;;
19301;SDS011;9785;59.362;12.152;2023-04-25T08:37:40;0.37;;;0.37;;
19301;SDS011;9785;59.362;12.152;2023-04-25T08:40:10;0.30;;;0.30;;
19301;SDS011;9785;59.362;12.152;2023-04-25T08:42:39;0.37;;;0.37;;
19301;SDS011;9785;59.362;12.152;2023-04-25T08:45:09;0.37;;;0.37;;
19301;SDS011;9785;59.362;12.152;2023-04-25T08:47:38;0.30;;;0.30;;
19301;SDS011;9785;59.362;12.152;2023-04-25T08:50:08;0.20;;;0.20;;
19301;SDS011;9785;59.362;12.152;2023-04-25T08:52:37;0.20;;;0.20;;
19301;SDS011;9785;59.362;12.152;2023-04-25T08:55:09;0.30;;;0.30;;
19301;SDS011;9785;59.362;12.152;2023-04-25T08:57:38;0.20;;;0.20;;
19301;SDS011;9785;59.362;12.152;2023-04-25T09:00:09;0.10;;;0.10;;
19301;SDS011;9785;59.362;12.152;2023-04-25T09:02:38;0.20;;;0.20;;
19301;SDS011;9785;59.362;12.152;2023-04-25T09:05:07;0.30;;;0.30;;
19301;SDS011;9785;59.362;12.152;2023-04-25T09:07:37;0.30;;;0.30;;
19301;SDS011;9785;59.362;12.152;2023-04-25T09:10:06;0.10;;;0.10;;
19301;SDS011;9785;59.362;12.152;2023-04-25T09:12:36;0.43;;;0.20;;
19301;SDS011;9785;59.362;12.152;2023-04-25T09:15:05;0.20;;;0.20;;
19301;SDS011;9785;59.362;12.152;2023-04-25T09:17:34;0.10;;;0.10;;
19301;SDS011;9785;59.362;12.152;2023-04-25T09:20:07;0.10;;;0.10;;
19301;SDS011;9785;59.362;12.152;2023-04-25T09:22:36;0.10;;;0.10;;
19301;SDS011;9785;59.362;12.152;2023-04-25T09:25:07;0.23;;;0.23;;
19301;SDS011;9785;59.362;12.152;2023-04-25T09:27:38;0.20;;;0.20;;
19301;SDS011;9785;59.362;12.152;2023-04-25T09:30:17;0.13;;;0.13;;
19301;SDS011;9785;59.362;12.152;2023-04-25T09:32:46;0.20;;;0.20;;
19301;SDS011;9785;59.362;12.152;2023-04-25T09:35:23;0.20;;;0.20;;
19301;SDS011;9785;59.362;12.152;2023-04-25T09:37:52;0.20;;;0.20;;
19301;SDS011;9785;59.362;12.152;2023-04-25T09:40:21;1.90;;;0.30;;
19301;SDS011;9785;59.362;12.152;2023-04-25T09:42:51;0.30;;;0.30;;
19301;SDS011;9785;59.362;12.152;2023-04-25T09:45:19;0.10;;;0.10;;
19301;SDS011;9785;59.362;12.152;2023-04-25T09:47:48;0.20;;;0.20;;
19301;SDS011;9785;59.362;12.152;2023-04-25T09:50:17;0.40;;;0.40;;
19301;SDS011;9785;59.362;12.152;2023-04-25T09:52:46;0.27;;;0.27;;
19301;SDS011;9785;59.362;12.152;2023-04-25T09:55:30;0.30;;;0.30;;
19301;SDS011;9785;59.362;12.152;2023-04-25T09:58:03;0.20;;;0.20;;
19301;SDS011;9785;59.362;12.152;2023-04-25T10:00:32;0.13;;;0.13;;
19301;SDS011;9785;59.362;12.152;2023-04-25T10:03:01;0.23;;;0.23;;
19301;SDS011;9785;59.362;12.152;2023-04-25T10:05:32;0.20;;;0.20;;
19301;SDS011;9785;59.362;12.152;2023-04-25T10:08:02;0.13;;;0.10;;
19301;SDS011;9785;59.362;12.152;2023-04-25T10:10:31;0.40;;;0.40;;
19301;SDS011;9785;59.362;12.152;2023-04-25T10:13:04;0.30;;;0.30;;
19301;SDS011;9785;59.362;12.152;2023-04-25T10:15:34;0.93;;;0.50;;
19301;SDS011;9785;59.362;12.152;2023-04-25T10:18:06;0.20;;;0.20;;
19301;SDS011;9785;59.362;12.152;2023-04-25T10:20:34;1.23;;;0.30;;
19301;SDS011;9785;59.362;12.152;2023-04-25T10:23:04;0.30;;;0.30;;
19301;SDS011;9785;59.362;12.152;2023-04-25T10:25:35;0.30;;;0.30;;
19301;SDS011;9785;59.362;12.152;2023-04-25T10:28:05;0.40;;;0.40;;
19301;SDS011;9785;59.362;12.152;2023-04-25T10:30:34;1.07;;;0.57;;
19301;SDS011;9785;59.362;12.152;2023-04-25T10:33:03;0.60;;;0.60;;
19301;SDS011;9785;59.362;12.152;2023-04-25T10:35:44;1.70;;;0.37;;
19301;SDS011;9785;59.362;12.152;2023-04-25T10:38:13;0.50;;;0.50;;
19301;SDS011;9785;59.362;12.152;2023-04-25T10:40:42;0.60;;;0.60;;
19301;SDS011;9785;59.362;12.152;2023-04-25T10:43:35;0.50;;;0.50;;
19301;SDS011;9785;59.362;12.152;2023-04-25T10:46:12;0.47;;;0.47;;
19301;SDS011;9785;59.362;12.152;2023-04-25T10:48:44;0.53;;;0.53;;
19301;SDS011;9785;59.362;12.152;2023-04-25T10:51:17;0.70;;;0.70;;
19301;SDS011;9785;59.362;12.152;2023-04-25T10:53:46;0.70;;;0.70;;
19301;SDS011;9785;59.362;12.152;2023-04-25T10:56:18;0.80;;;0.80;;
19301;SDS011;9785;59.362;12.152;2023-04-25T10:58:49;0.80;;;0.80;;
19301;SDS011;9785;59.362;12.152;2023-04-25T11:01:19;0.77;;;0.77;;
19301;SDS011;9785;59.362;12.152;2023-04-25T11:03:48;0.70;;;0.70;;
19301;SDS011;9785;59.362;12.152;2023-04-25T11:06:20;0.87;;;0.87;;
19301;SDS011;9785;59.362;12.152;2023-04-25T11:08:50;0.90;;;0.90;;
19301;SDS011;9785;59.362;12.152;2023-04-25T11:11:19;0.80;;;0.80;;
19301;SDS011;9785;59.362;12.152;2023-04-25T11:13:49;1.10;;;1.00;;
19301;SDS011;9785;59.362;12.152;2023-04-25T11:16:18;1.20;;;1.10;;
19301;SDS011;9785;59.362;12.152;2023-04-25T11:18:53;0.90;;;0.90;;
19301;SDS011;9785;59.362;12.152;2023-04-25T11:21:25;0.90;;;0.90;;
19301;SDS011;9785;59.362;12.152;2023-04-25T11:23:54;1.00;;;1.00;;
19301;SDS011;9785;59.362;12.152;2023-04-25T11:26:24;1.00;;;1.00;;
19301;SDS011;9785;59.362;12.152;2023-04-25T11:28:58;0.90;;;0.90;;
19301;SDS011;9785;59.362;12.152;2023-04-25T11:31:27;1.10;;;1.10;;
19301;SDS011;9785;59.362;12.152;2023-04-25T11:33:56;1.10;;;1.10;;
19301;SDS011;9785;59.362;12.152;2023-04-25T11:36:26;2.00;;;1.30;;
19301;SDS011;9785;59.362;12.152;2023-04-25T11:38:55;1.40;;;1.27;;
19301;SDS011;9785;59.362;12.152;2023-04-25T11:41:24;1.20;;;0.93;;
19301;SDS011;9785;59.362;12.152;2023-04-25T11:43:53;1.30;;;1.20;;
19301;SDS011;9785;59.362;12.152;2023-04-25T11:46:23;1.80;;;1.30;;
19301;SDS011;9785;59.362;12.152;2023-04-25T11:48:52;1.40;;;1.40;;
19301;SDS011;9785;59.362;12.152;2023-04-25T11:51:24;1.10;;;1.10;;
19301;SDS011;9785;59.362;12.152;2023-04-25T11:53:53;1.20;;;1.10;;
19301;SDS011;9785;59.362;12.152;2023-04-25T11:56:22;1.33;;;1.33;;
19301;SDS011;9785;59.362;12.152;2023-04-25T11:58:53;1.10;;;1.10;;
19301;SDS011;9785;59.362;12.152;2023-04-25T12:01:27;1.20;;;1.10;;
19301;SDS011;9785;59.362;12.152;2023-04-25T12:04:10;3.23;;;1.40;;
19301;SDS011;9785;59.362;12.152;2023-04-25T12:06:40;1.60;;;1.50;;
19301;SDS011;9785;59.362;12.152;2023-04-25T12:09:09;1.30;;;1.30;;
19301;SDS011;9785;59.362;12.152;2023-04-25T12:11:42;1.50;;;1.40;;
19301;SDS011;9785;59.362;12.152;2023-04-25T12:14:11;1.77;;;1.67;;
19301;SDS011;9785;59.362;12.152;2023-04-25T12:16:42;1.37;;;1.30;;
19301;SDS011;9785;59.362;12.152;2023-04-25T12:19:13;1.53;;;1.43;;
19301;SDS011;9785;59.362;12.152;2023-04-25T12:21:42;1.40;;;1.27;;
19301;SDS011;9785;59.362;12.152;2023-04-25T12:24:23;1.50;;;1.40;;
19301;SDS011;9785;59.362;12.152;2023-04-25T12:26:53;1.73;;;1.63;;
19301;SDS011;9785;59.362;12.152;2023-04-25T12:29:23;1.60;;;1.50;;
19301;SDS011;9785;59.362;12.152;2023-04-25T12:31:58;1.73;;;1.60;;
19301;SDS011;9785;59.362;12.152;2023-04-25T12:34:28;1.40;;;1.40;;
19301;SDS011;9785;59.362;12.152;2023-04-25T12:36:58;1.70;;;1.60;;
19301;SDS011;9785;59.362;12.152;2023-04-25T12:39:26;2.23;;;1.70;;
19301;SDS011;9785;59.362;12.152;2023-04-25T12:41:55;1.67;;;1.57;;
19301;SDS011;9785;59.362;12.152;2023-04-25T12:44:25;1.90;;;1.80;;
19301;SDS011;9785;59.362;12.152;2023-04-25T12:46:54;2.07;;;1.97;;
19301;SDS011;9785;59.362;12.152;2023-04-25T12:49:24;2.13;;;1.93;;
19301;SDS011;9785;59.362;12.152;2023-04-25T12:51:52;2.03;;;1.83;;
19301;SDS011;9785;59.362;12.152;2023-04-25T12:54:21;2.27;;;2.07;;
19301;SDS011;9785;59.362;12.152;2023-04-25T12:56:49;2.00;;;1.90;;
19301;SDS011;9785;59.362;12.152;2023-04-25T12:59:19;2.37;;;1.83;;
19301;SDS011;9785;59.362;12.152;2023-04-25T13:01:47;1.80;;;1.70;;
19301;SDS011;9785;59.362;12.152;2023-04-25T13:04:16;2.53;;;2.33;;
19301;SDS011;9785;59.362;12.152;2023-04-25T13:06:49;1.93;;;1.80;;
19301;SDS011;9785;59.362;12.152;2023-04-25T13:09:17;1.63;;;1.53;;
19301;SDS011;9785;59.362;12.152;2023-04-25T13:11:46;1.70;;;1.60;;
19301;SDS011;9785;59.362;12.152;2023-04-25T13:14:15;1.83;;;1.70;;
19301;SDS011;9785;59.362;12.152;2023-04-25T13:16:44;1.83;;;1.73;;
19301;SDS011;9785;59.362;12.152;2023-04-25T13:19:12;1.70;;;1.60;;
19301;SDS011;9785;59.362;12.152;2023-04-25T13:21:41;1.60;;;1.60;;
19301;SDS011;9785;59.362;12.152;2023-04-25T13:24:11;1.40;;;1.30;;
19301;SDS011;9785;59.362;12.152;2023-04-25T13:26:39;1.23;;;1.23;;
19301;SDS011;9785;59.362;12.152;2023-04-25T13:29:08;1.30;;;1.30;;
19301;SDS011;9785;59.362;12.152;2023-04-25T13:31:36;1.23;;;1.20;;
19301;SDS011;9785;59.362;12.152;2023-04-25T13:34:05;1.00;;;1.00;;
19301;SDS011;9785;59.362;12.152;2023-04-25T13:36:33;0.83;;;0.83;;
19301;SDS011;9785;59.362;12.152;2023-04-25T13:39:02;1.03;;;1.03;;
19301;SDS011;9785;59.362;12.152;2023-04-25T13:41:33;0.70;;;0.70;;
19301;SDS011;9785;59.362;12.152;2023-04-25T13:44:02;0.83;;;0.83;;
19301;SDS011;9785;59.362;12.152;2023-04-25T13:46:30;0.73;;;0.73;;
19301;SDS011;9785;59.362;12.152;2023-04-25T13:49:12;0.80;;;0.80;;
19301;SDS011;9785;59.362;12.152;2023-04-25T13:51:42;0.60;;;0.60;;
19301;SDS011;9785;59.362;12.152;2023-04-25T13:54:11;0.50;;;0.50;;
19301;SDS011;9785;59.362;12.152;2023-04-25T13:56:41;0.77;;;0.60;;
19301;SDS011;9785;59.362;12.152;2023-04-25T13:59:09;1.23;;;0.60;;
19301;SDS011;9785;59.362;12.152;2023-04-25T14:01:38;0.60;;;0.60;;
19301;SDS011;9785;59.362;12.152;2023-04-25T14:04:07;0.53;;;0.53;;
19301;SDS011;9785;59.362;12.152;2023-04-25T14:06:35;0.70;;;0.70;;
19301;SDS011;9785;59.362;12.152;2023-04-25T14:09:04;0.50;;;0.50;;
19301;SDS011;9785;59.362;12.152;2023-04-25T14:11:36;0.40;;;0.40;;
19301;SDS011;9785;59.362;12.152;2023-04-25T14:14:06;0.23;;;0.23;;
19301;SDS011;9785;59.362;12.152;2023-04-25T14:16:35;0.40;;;0.40;;
19301;SDS011;9785;59.362;12.152;2023-04-25T14:19:03;0.30;;;0.30;;
19301;SDS011;9785;59.362;12.152;2023-04-25T14:21:35;0.40;;;0.40;;
19301;SDS011;9785;59.362;12.152;2023-04-25T14:24:03;0.23;;;0.20;;
19301;SDS011;9785;59.362;12.152;2023-04-25T14:26:32;0.17;;;0.10;;
19301;SDS011;9785;59.362;12.152;2023-04-25T14:29:01;0.10;;;0.10;;
19301;SDS011;9785;59.362;12.152;2023-04-25T14:31:31;0.20;;;0.20;;
19301;SDS011;9785;59.362;12.152;2023-04-25T14:34:00;0.10;;;0.10;;
19301;SDS011;9785;59.362;12.152;2023-04-25T14:36:29;0.20;;;0.20;;
19301;SDS011;9785;59.362;12.152;2023-04-25T14:38:58;0.20;;;0.10;;
19301;SDS011;9785;59.362;12.152;2023-04-25T14:41:27;0.17;;;0.17;;
19301;SDS011;9785;59.362;12.152;2023-04-25T14:43:56;0.20;;;0.20;;
19301;SDS011;9785;59.362;12.152;2023-04-25T14:46:24;0.20;;;0.20;;
19301;SDS011;9785;59.362;12.152;2023-04-25T14:48:54;0.10;;;0.10;;
19301;SDS011;9785;59.362;12.152;2023-04-25T14:51:24;0.10;;;0.10;;
19301;SDS011;9785;59.362;12.152;2023-04-25T14:53:52;0.10;;;0.10;;
19301;SDS011;9785;59.362;12.152;2023-04-25T14:56:21;0.10;;;0.10;;
19301;SDS011;9785;59.362;12.152;2023-04-25T14:58:50;0.10;;;0.10;;
19301;SDS011;9785;59.362;12.152;2023-04-25T15:01:18;0.30;;;0.27;;
19301;SDS011;9785;59.362;12.152;2023-04-25T15:03:48;0.30;;;0.30;;